Time;durP1;ratioP1;P1;durP2;ratioP2;P2;SDS_P1;SDS_P2;PMS_P1;PMS_P2;Temp;Humidity;BMP_temperature;BMP_pressure;BME280_temperature;BME280_humidity;BME280_pressure;Samples;Min_cycle;Max_cycle;Signal;HPM_P1;HPM_P2
2022/04/12 00:03:57;;;;;;;0.00;0.00;;;;;;;10.34;49.33;101212.78;10590106;27;20043;-78
2022/04/12 00:08:59;;;;;;;0.00;0.00;;;;;;;10.23;49.54;101203.84;10548998;28;20051;-78
2022/04/12 00:14:01;;;;;;;0.00;0.00;;;;;;;9.96;50.49;101197.84;10583508;28;20082;-78
2022/04/12 00:19:02;;;;;;;0.00;0.00;;;;;;;10.00;50.08;101191.97;10564555;28;20405;-78
2022/04/12 00:24:06;;;;;;;0.17;0.17;;;;;;;9.92;49.73;101187.41;10564732;28;20443;-77
2022/04/12 00:29:07;;;;;;;0.00;0.00;;;;;;;10.16;49.20;101192.47;10548167;28;20122;-79
2022/04/12 00:34:09;;;;;;;0.22;0.22;;;;;;;10.16;48.33;101183.03;10581537;28;20057;-77
2022/04/12 00:39:10;;;;;;;0.00;0.00;;;;;;;10.21;47.93;101187.47;10564360;28;20071;-78
2022/04/12 00:44:12;;;;;;;0.00;0.00;;;;;;;9.92;49.30;101177.13;10585547;27;20475;-78
2022/04/12 00:49:14;;;;;;;0.00;0.00;;;;;;;10.02;49.36;101176.56;10565619;28;20051;-78
2022/04/12 00:54:19;;;;;;;0.00;0.00;;;;;;;9.84;49.89;101174.28;10576165;27;20463;-78
2022/04/12 00:59:23;;;;;;;0.00;0.00;;;;;;;9.38;51.54;101168.44;10605383;27;20560;-78
2022/04/12 01:04:25;;;;;;;0.00;0.00;;;;;;;9.62;50.95;101152.09;10604849;27;20130;-78
2022/04/12 01:09:27;;;;;;;0.00;0.00;;;;;;;9.50;51.08;101148.28;10605222;27;20498;-78
2022/04/12 01:14:29;;;;;;;0.00;0.00;;;;;;;9.59;50.10;101164.84;10604371;27;20134;-78
2022/04/12 01:19:30;;;;;;;0.00;0.00;;;;;;;9.66;50.11;101159.09;10622266;27;20438;-78
2022/04/12 01:24:34;;;;;;;0.00;0.00;;;;;;;9.80;49.52;101147.56;10603435;27;20046;-78
2022/04/12 01:29:36;;;;;;;0.00;0.00;;;;;;;9.82;50.09;101143.34;10622684;27;20104;-78
2022/04/12 01:34:39;;;;;;;0.00;0.00;;;;;;;9.76;49.87;101138.00;10603974;27;20527;-78
2022/04/12 01:39:40;;;;;;;0.00;0.00;;;;;;;9.76;49.77;101140.56;10621673;27;20126;-78
2022/04/12 01:44:42;;;;;;;0.00;0.00;;;;;;;9.65;49.71;101136.75;10590537;27;20141;-77
2022/04/12 01:49:45;;;;;;;0.00;0.00;;;;;;;9.60;49.90;101130.59;10602565;27;20563;-77
2022/04/12 01:54:46;;;;;;;0.00;0.00;;;;;;;9.53;49.81;101125.25;10602909;27;20066;-76
2022/04/12 01:59:47;;;;;;;3.20;0.63;;;;;;;9.70;49.69;101119.78;10585668;27;20137;-76
2022/04/12 02:04:49;;;;;;;0.00;0.00;;;;;;;9.66;49.87;101120.50;10602668;27;20458;-76
2022/04/12 02:09:51;;;;;;;1.88;1.33;;;;;;;9.72;49.33;101107.84;10602158;27;20577;-76
2022/04/12 02:14:54;;;;;;;0.00;0.00;;;;;;;9.89;48.70;101110.97;10584711;27;20047;-77
2022/04/12 02:19:55;;;;;;;0.30;0.30;;;;;;;9.59;50.16;101104.00;10601999;27;20051;-77
2022/04/12 02:24:57;;;;;;;0.00;0.00;;;;;;;9.54;50.54;101108.09;10620528;27;20122;-77
2022/04/12 02:29:58;;;;;;;0.00;0.00;;;;;;;9.51;50.66;101106.31;10560958;27;20066;-77
2022/04/12 02:35:00;;;;;;;0.00;0.00;;;;;;;9.49;49.77;101115.66;10560362;28;20075;-77
2022/04/12 02:40:03;;;;;;;0.00;0.00;;;;;;;9.37;49.48;101115.25;10584070;28;20047;-77
2022/04/12 02:45:06;;;;;;;0.00;0.00;;;;;;;9.75;48.94;101112.22;10578146;28;20035;-77
2022/04/12 02:50:08;;;;;;;0.00;0.00;;;;;;;9.85;48.32;101119.41;10608116;28;20549;-78
2022/04/12 02:55:09;;;;;;;0.00;0.00;;;;;;;9.90;48.47;101111.84;10578512;28;20069;-77
2022/04/12 03:00:12;;;;;;;0.00;0.00;;;;;;;9.69;49.31;101108.63;10608172;27;20066;-79
2022/04/12 03:05:13;;;;;;;0.00;0.00;;;;;;;9.58;49.87;101103.94;10576733;28;20032;-78
2022/04/12 03:10:15;;;;;;;0.00;0.00;;;;;;;9.65;49.69;101098.16;10585881;27;20047;-78
2022/04/12 03:15:16;;;;;;;0.00;0.00;;;;;;;9.52;49.97;101108.06;10608591;27;20067;-78
2022/04/12 03:20:18;;;;;;;0.00;0.00;;;;;;;9.53;49.68;101109.81;10608746;27;20138;-78
2022/04/12 03:25:20;;;;;;;0.00;0.00;;;;;;;9.50;49.99;101099.41;10626245;27;20039;-77
2022/04/12 03:30:21;;;;;;;0.00;0.00;;;;;;;9.48;49.96;101101.09;10608970;27;20138;-78
2022/04/12 03:35:23;;;;;;;0.00;0.00;;;;;;;9.42;50.29;101088.00;10608240;27;20429;-77
2022/04/12 03:40:27;;;;;;;0.00;0.00;;;;;;;9.32;50.79;101084.25;10625054;27;20112;-78
2022/04/12 03:45:29;;;;;;;0.00;0.00;;;;;;;9.14;51.04;101074.22;10596631;27;20498;-77
2022/04/12 03:50:31;;;;;;;0.00;0.00;;;;;;;9.37;50.80;101068.97;10587032;27;20051;-78
2022/04/12 03:55:35;;;;;;;0.00;0.00;;;;;;;9.49;50.69;101068.50;10562674;28;20068;-78
2022/04/12 04:00:36;;;;;;;0.00;0.00;;;;;;;9.29;50.55;101072.97;10556454;28;20074;-77
2022/04/12 04:05:38;;;;;;;0.00;0.00;;;;;;;9.08;51.09;101066.28;10560610;28;20399;-77
2022/04/12 04:10:39;;;;;;;0.00;0.00;;;;;;;9.05;51.08;101066.16;10561061;28;20046;-77
2022/04/12 04:15:41;;;;;;;0.00;0.00;;;;;;;9.06;51.34;101060.22;10546935;28;20043;-77
2022/04/12 04:20:43;;;;;;;0.00;0.00;;;;;;;8.84;51.45;101056.03;10564314;28;20126;-77
2022/04/12 04:25:44;;;;;;;0.10;0.10;;;;;;;9.03;51.17;101058.41;10544975;28;20071;-77
2022/04/12 04:31:11;;;;;;;0.00;0.00;;;;;;;9.07;50.62;101061.97;10563741;28;20487;-77
2022/04/12 04:36:14;;;;;;;0.00;0.00;;;;;;;9.00;51.75;101067.72;10562631;28;20160;-78
2022/04/12 04:41:15;;;;;;;0.00;0.00;;;;;;;9.16;51.26;101064.84;10563133;27;20099;-78
2022/04/12 04:46:17;;;;;;;0.00;0.00;;;;;;;9.10;51.52;101074.94;10577650;28;20150;-77
2022/04/12 04:51:19;;;;;;;0.00;0.00;;;;;;;9.02;52.02;101081.50;10563367;28;20510;-77
2022/04/12 04:56:21;;;;;;;0.00;0.00;;;;;;;8.87;52.54;101082.72;10562464;28;20044;-77
2022/04/12 05:01:23;;;;;;;0.00;0.00;;;;;;;9.10;52.28;101087.78;10562369;28;20089;-78
2022/04/12 05:06:25;;;;;;;0.00;0.00;;;;;;;9.05;51.53;101079.03;10544848;28;20433;-78
2022/04/12 05:11:26;;;;;;;0.00;0.00;;;;;;;9.14;51.85;101089.63;10579683;28;20093;-78
2022/04/12 05:16:29;;;;;;;0.00;0.00;;;;;;;9.05;52.75;101073.88;10579945;28;20498;-77
2022/04/12 05:21:30;;;;;;;0.10;0.10;;;;;;;9.18;52.28;101068.38;10579361;28;20042;-78
2022/04/12 05:26:32;;;;;;;0.00;0.00;;;;;;;9.48;50.85;101077.94;10578766;28;20082;-77
2022/04/12 05:31:34;;;;;;;0.30;0.10;;;;;;;9.60;51.48;101081.72;10552311;28;20448;-77
2022/04/12 05:36:35;;;;;;;0.00;0.00;;;;;;;9.64;51.48;101070.72;10571103;28;20047;-77
2022/04/12 05:41:50;;;;;;;0.00;0.00;;;;;;;9.90;50.41;101075.81;10486981;28;20406;-79
2022/04/12 05:46:51;;;;;;;0.00;0.00;;;;;;;10.18;50.56;101077.53;10440173;28;20574;-79
2022/04/12 05:51:54;;;;;;;0.00;0.00;;;;;;;10.19;51.38;101080.97;10468220;28;20522;-77
2022/04/12 05:56:55;;;;;;;0.00;0.00;;;;;;;10.30;50.63;101066.75;10464492;28;20088;-78
2022/04/12 06:01:59;;;;;;;0.00;0.00;;;;;;;10.51;49.91;101060.50;10454434;28;20483;-76
2022/04/12 06:07:01;;;;;;;0.00;0.00;;;;;;;10.91;49.77;101066.75;10461805;28;20523;-78
2022/04/12 06:12:02;;;;;;;0.00;0.00;;;;;;;11.00;49.55;101071.28;10445509;28;20493;-78
2022/04/12 06:17:04;;;;;;;0.00;0.00;;;;;;;11.14;50.18;101062.22;10469279;28;20488;-78
2022/04/12 06:22:06;;;;;;;0.00;0.00;;;;;;;11.26;48.87;101066.81;10484908;28;20412;-76
2022/04/12 06:27:07;;;;;;;0.00;0.00;;;;;;;11.78;47.47;101066.34;10476786;28;20061;-77
2022/04/12 06:32:09;;;;;;;0.68;0.68;;;;;;;12.43;48.14;101052.31;10417139;28;20042;-79
2022/04/12 06:37:10;;;;;;;0.00;0.00;;;;;;;12.46;48.10;101060.13;10440398;28;20068;-78
2022/04/12 06:42:12;;;;;;;0.00;0.00;;;;;;;12.62;47.51;101069.91;10436614;28;20077;-76
2022/04/12 06:47:18;;;;;;;0.00;0.00;;;;;;;13.02;46.64;101078.47;10429852;28;20040;-78
2022/04/12 06:52:21;;;;;;;0.00;0.00;;;;;;;13.32;44.94;101092.78;10409564;28;20520;-79
2022/04/12 06:57:22;;;;;;;0.00;0.00;;;;;;;13.96;44.46;101092.13;10408232;28;20563;-78
2022/04/12 07:02:24;;;;;;;0.00;0.00;;;;;;;14.25;43.22;101096.88;10411580;28;20099;-79
2022/04/12 07:07:27;;;;;;;0.10;0.10;;;;;;;13.52;44.22;101094.03;10425692;28;20041;-77
2022/04/12 07:12:28;;;;;;;0.10;0.10;;;;;;;14.43;44.51;101082.41;10423855;28;20103;-78
2022/04/12 07:17:30;;;;;;;2.65;0.82;;;;;;;14.62;42.23;101080.06;10407107;28;20045;-76
2022/04/12 07:22:32;;;;;;;0.00;0.00;;;;;;;14.83;43.03;101098.50;10409983;28;20049;-78
2022/04/12 07:27:36;;;;;;;0.00;0.00;;;;;;;14.23;44.14;101101.16;10415390;28;20068;-79
2022/04/12 07:32:37;;;;;;;0.00;0.00;;;;;;;15.44;43.18;101087.00;10427722;28;20080;-79
2022/04/12 07:37:43;;;;;;;0.20;0.10;;;;;;;17.06;40.44;101071.41;10432070;28;20482;-78
2022/04/12 07:42:45;;;;;;;0.00;0.00;;;;;;;17.17;39.71;101050.59;10431599;28;20049;-77
2022/04/12 07:47:47;;;;;;;1.27;1.17;;;;;;;16.92;39.25;101044.47;10428046;28;20037;-78
2022/04/12 07:52:48;;;;;;;0.00;0.00;;;;;;;17.05;40.44;101035.84;10420770;28;20128;-82
2022/04/12 07:57:50;;;;;;;0.10;0.10;;;;;;;17.85;40.15;101036.66;10414752;28;20545;-81
2022/04/12 08:02:51;;;;;;;0.35;0.30;;;;;;;16.84;39.37;101035.78;10420990;28;20084;-81
2022/04/12 08:07:53;;;;;;;0.00;0.00;;;;;;;17.66;39.50;101020.19;10431563;28;20076;-83
2022/04/12 08:12:55;;;;;;;0.15;0.15;;;;;;;17.75;38.46;101012.38;10412661;28;20045;-83
2022/04/12 08:17:57;;;;;;;0.03;0.03;;;;;;;17.61;39.42;100999.34;10411370;28;20132;-83
2022/04/12 08:22:59;;;;;;;0.00;0.00;;;;;;;17.81;38.41;100999.31;10408346;28;20111;-82
2022/04/12 08:28:00;;;;;;;1.08;0.50;;;;;;;17.18;38.22;100996.78;10407718;28;20513;-84
2022/04/12 08:33:02;;;;;;;0.00;0.00;;;;;;;18.18;39.31;100990.56;10425609;28;20128;-83
2022/04/12 08:38:04;;;;;;;0.00;0.00;;;;;;;18.55;37.63;100985.16;10452335;28;20072;-86
2022/04/12 08:43:08;;;;;;;0.00;0.00;;;;;;;18.77;37.14;100995.44;10423115;28;20053;-84
2022/04/12 08:48:10;;;;;;;0.10;0.10;;;;;;;19.60;36.21;100994.78;10411158;28;20041;-88
2022/04/12 08:53:14;;;;;;;0.28;0.28;;;;;;;19.35;36.01;100996.78;10425467;28;20083;-86
2022/04/12 08:58:16;;;;;;;0.03;0.03;;;;;;;19.46;35.76;101001.91;10448933;28;20045;-87
2022/04/12 09:03:18;;;;;;;0.00;0.00;;;;;;;19.66;35.29;101005.19;10413239;28;20081;-84
2022/04/12 09:08:29;;;;;;;3.17;2.03;;;;;;;18.74;36.59;101004.16;10409153;28;20045;-85
2022/04/12 09:13:32;;;;;;;0.30;0.15;;;;;;;19.82;34.14;100999.78;10409646;28;20072;-83
2022/04/12 09:18:39;;;;;;;3.97;1.70;;;;;;;18.35;36.44;101004.38;10376642;28;20037;-86
2022/04/12 09:23:42;;;;;;;0.00;0.00;;;;;;;21.00;34.17;100979.94;10408546;28;20152;-86
2022/04/12 09:28:56;;;;;;;3.25;1.17;;;;;;;19.15;35.50;100987.34;10412481;28;20041;-87
2022/04/12 09:33:59;;;;;;;2.13;1.48;;;;;;;19.81;34.97;100993.66;10432961;28;20144;-86
2022/04/12 09:39:02;;;;;;;2.50;1.05;;;;;;;19.80;34.47;100985.84;10444311;28;20103;-85
2022/04/12 09:44:08;;;;;;;0.00;0.00;;;;;;;20.85;33.44;100971.44;10389683;28;20560;-86
2022/04/12 09:49:11;;;;;;;1.38;0.63;;;;;;;21.18;33.06;100973.53;10411653;28;20053;-84
2022/04/12 09:54:22;;;;;;;0.38;0.30;;;;;;;20.95;32.55;100963.44;10450710;28;20096;-87
2022/04/12 09:59:23;;;;;;;3.90;1.77;;;;;;;19.92;34.13;100975.28;10420476;28;20073;-81
2022/04/12 10:04:25;;;;;;;2.53;1.45;;;;;;;20.49;32.78;100968.47;10402611;28;20132;-84
2022/04/12 10:09:28;;;;;;;3.17;1.73;;;;;;;20.09;33.93;100961.13;10398669;28;20074;-85
2022/04/12 10:14:36;;;;;;;0.40;0.22;;;;;;;21.38;33.66;100958.31;10409084;28;20053;-84
2022/04/12 10:19:38;;;;;;;2.55;0.38;;;;;;;21.09;34.83;100950.97;10387145;28;20034;-86
2022/04/12 10:24:40;;;;;;;3.70;2.45;;;;;;;20.08;34.76;100954.19;10374898;28;20077;-83
2022/04/12 10:30:17;;;;;;;3.30;1.85;;;;;;;20.75;34.54;100956.75;10379405;28;20710;-82
2022/04/12 10:35:19;;;;;;;2.50;1.23;;;;;;;20.76;33.61;100958.47;10400163;28;20059;-85
2022/04/12 10:40:21;;;;;;;0.65;0.32;;;;;;;22.27;34.44;100954.81;10394221;28;20509;-85
2022/04/12 10:45:33;;;;;;;16.20;1.90;;;;;;;20.88;34.14;100939.97;10403717;28;20060;-86
2022/04/12 10:50:41;;;;;;;1.88;1.17;;;;;;;22.14;33.31;100930.63;10428339;28;20049;-85
2022/04/12 10:55:43;;;;;;;2.92;1.70;;;;;;;21.28;33.44;100937.53;10455704;28;20094;-85
2022/04/12 11:00:45;;;;;;;5.68;1.70;;;;;;;21.82;34.39;100931.28;10443868;28;20065;-85
2022/04/12 11:05:53;;;;;;;2.38;2.10;;;;;;;23.04;31.08;100931.16;10397772;28;20103;-84
2022/04/12 11:10:55;;;;;;;1.25;0.40;;;;;;;23.07;32.02;100925.81;10430544;28;20072;-87
2022/04/12 11:16:00;;;;;;;1.70;0.80;;;;;;;23.92;30.23;100927.91;10454793;28;20419;-87
2022/04/12 11:21:06;;;;;;;0.28;0.22;;;;;;;23.38;30.85;100924.19;10431826;28;20600;-83
2022/04/12 11:26:49;;;;;;;1.40;0.43;;;;;;;23.54;31.19;100929.88;10392476;28;20049;-86
2022/04/12 11:31:51;;;;;;;0.90;0.32;;;;;;;;;;10431082;28;20587;-85
2022/04/12 11:36:56;;;;;;;0.30;0.30;;;;;;;22.55;30.59;100906.09;10414279;28;20080;-85
2022/04/12 11:42:03;;;;;;;0.65;0.30;;;;;;;22.26;31.82;100905.88;10401861;28;20042;-85
2022/04/12 11:47:07;;;;;;;0.40;0.40;;;;;;;21.56;31.51;100904.66;10412798;28;20049;-86
2022/04/12 11:52:14;;;;;;;2.30;1.10;;;;;;;21.72;33.86;100899.16;10413508;28;20053;-85
2022/04/12 11:57:21;;;;;;;2.00;1.00;;;;;;;21.07;33.68;100905.59;10412107;28;20124;-84
2022/04/12 12:02:31;;;;;;;0.85;0.50;;;;;;;21.39;33.65;100912.03;10395417;28;20049;-83
2022/04/12 12:07:36;;;;;;;1.67;0.98;;;;;;;21.83;32.22;100902.44;10412484;28;20053;-84
2022/04/12 12:12:39;;;;;;;1.90;1.00;;;;;;;22.64;32.53;100890.13;10439644;28;20047;-84
2022/04/12 12:17:48;;;;;;;1.70;0.63;;;;;;;22.47;31.46;100899.28;10453814;28;20147;-85
2022/04/12 12:22:53;;;;;;;1.30;0.45;;;;;;;22.11;33.60;100901.81;10423303;28;20540;-84
2022/04/12 12:27:55;;;;;;;1.30;0.73;;;;;;;22.28;31.76;100903.22;10413322;28;20477;-86
2022/04/12 12:32:57;;;;;;;0.73;0.55;;;;;;;23.20;30.76;100872.94;10410916;28;20065;-84
2022/04/12 12:38:08;;;;;;;0.00;0.00;;;;;;;23.75;30.65;100847.72;10411082;28;20474;-83
2022/04/12 12:43:11;;;;;;;1.45;0.77;;;;;;;23.01;31.74;100847.16;10410127;28;20409;-84
2022/04/12 12:48:18;;;;;;;3.53;1.33;;;;;;;22.38;32.96;100846.97;10392685;28;20085;-83
2022/04/12 12:53:25;;;;;;;0.85;0.68;;;;;;;22.35;31.94;100853.16;10423358;28;20500;-84
2022/04/12 12:58:29;;;;;;;0.88;0.52;;;;;;;22.71;32.45;100854.94;10417899;28;20064;-84
2022/04/12 13:03:32;;;;;;;2.13;1.10;;;;;;;22.12;33.75;100856.31;10410213;28;20061;-84
2022/04/12 13:08:34;;;;;;;1.45;0.80;;;;;;;22.50;32.06;100825.72;10388829;28;20075;-83
2022/04/12 13:13:36;;;;;;;0.00;0.00;;;;;;;23.38;30.92;100819.88;10410679;28;20512;-83
2022/04/12 13:18:38;;;;;;;0.88;0.55;;;;;;;23.49;33.09;100848.50;10392935;28;20073;-84
2022/04/12 13:23:54;;;;;;;0.70;0.63;;;;;;;23.25;30.67;100855.31;10430201;28;20382;-85
2022/04/12 13:29:26;;;;;;;1.08;0.75;;;;;;;23.72;32.03;100844.31;10439830;28;20048;-83
2022/04/12 13:34:28;;;;;;;0.00;0.00;;;;;;;24.31;31.26;100830.22;10393057;28;20076;-83
2022/04/12 13:39:30;;;;;;;0.20;0.20;;;;;;;23.70;32.03;100844.38;10392142;28;20060;-84
2022/04/12 13:44:33;;;;;;;0.40;0.30;;;;;;;23.59;30.97;100838.56;10407357;28;20136;-85
2022/04/12 13:49:38;;;;;;;4.97;0.93;;;;;;;23.14;30.05;100832.78;10408326;28;20073;-84
2022/04/12 13:54:39;;;;;;;2.00;0.60;;;;;;;23.61;31.13;100834.97;10407620;28;20104;-83
2022/04/12 13:59:41;;;;;;;1.45;0.60;;;;;;;23.64;30.95;100828.78;10413235;28;20077;-83
2022/04/12 14:04:43;;;;;;;2.42;0.93;;;;;;;23.50;32.83;100828.31;10412918;28;20053;-84
2022/04/12 14:09:52;;;;;;;;;;;;;;;23.58;30.35;100821.06;10418427;28;20077;-84
2022/04/12 14:14:53;;;;;;;1.08;0.75;;;;;;;23.69;31.48;100813.72;10420068;28;19920;-83
2022/04/12 14:19:55;;;;;;;2.17;0.90;;;;;;;23.77;32.00;100805.56;10416198;28;20119;-84
2022/04/12 14:24:56;;;;;;;0.98;0.68;;;;;;;23.99;32.28;100797.03;10402697;28;20061;-82
2022/04/12 14:29:58;;;;;;;1.45;0.73;;;;;;;23.90;33.52;100798.16;10410835;28;20140;-82
2022/04/12 14:35:04;;;;;;;0.38;0.20;;;;;;;24.20;30.55;100791.06;10409456;28;20049;-82
2022/04/12 14:40:08;;;;;;;1.35;0.65;;;;;;;24.30;31.39;100781.13;10411604;28;20099;-82
2022/04/12 14:45:09;;;;;;;0.03;0.03;;;;;;;24.62;30.18;100767.75;10416536;28;20523;-83
2022/04/12 14:50:14;;;;;;;0.43;0.43;;;;;;;24.07;29.72;100768.72;10413195;28;20080;-83
2022/04/12 14:55:15;;;;;;;0.30;0.17;;;;;;;24.52;30.45;100767.22;10416963;28;20100;-84
2022/04/12 15:00:18;;;;;;;0.68;0.43;;;;;;;23.82;30.77;100771.25;10418087;28;20068;-83
2022/04/12 15:05:20;;;;;;;0.47;0.25;;;;;;;23.98;31.36;100769.88;10398746;28;20091;-84
2022/04/12 15:10:22;;;;;;;0.47;0.30;;;;;;;23.70;30.56;100768.09;10407739;28;20500;-83
2022/04/12 15:15:25;;;;;;;0.55;0.40;;;;;;;23.89;30.85;100767.50;10414083;28;20099;-85
2022/04/12 15:20:26;;;;;;;0.30;0.20;;;;;;;24.56;30.74;100768.84;10413207;28;20573;-84
2022/04/12 15:25:28;;;;;;;0.15;0.05;;;;;;;24.48;30.75;100757.69;10413335;28;20107;-84
2022/04/12 15:30:30;;;;;;;0.13;0.00;;;;;;;24.98;28.55;100754.22;10429016;28;20069;-85
2022/04/12 15:35:34;;;;;;;1.80;1.08;;;;;;;24.44;29.16;100758.72;10407280;28;20057;-84
2022/04/12 15:40:35;;;;;;;0.20;0.17;;;;;;;24.63;30.28;100758.94;10413566;28;20080;-84
2022/04/12 15:45:37;;;;;;;0.20;0.10;;;;;;;24.67;29.64;100761.47;10409664;28;20136;-85
2022/04/12 15:50:39;;;;;;;0.00;0.00;;;;;;;25.06;28.91;100767.13;10414100;28;20038;-82
2022/04/12 15:55:40;;;;;;;0.05;0.05;;;;;;;24.96;27.96;100774.47;10415673;28;20413;-83
2022/04/12 16:00:46;;;;;;;0.00;0.00;;;;;;;24.75;29.63;100769.06;10403459;28;20033;-84
2022/04/12 16:05:49;;;;;;;0.60;0.52;;;;;;;24.44;30.87;100777.16;10415510;28;20119;-84
2022/04/12 16:10:51;;;;;;;0.10;0.10;;;;;;;24.44;29.72;100777.16;10412645;28;20065;-85
2022/04/12 16:15:52;;;;;;;0.20;0.00;;;;;;;24.29;30.61;100787.31;10411163;28;20475;-85
2022/04/12 16:20:54;;;;;;;0.00;0.00;;;;;;;24.37;32.63;100789.66;10412462;28;20045;-85
2022/04/12 16:25:56;;;;;;;0.00;0.00;;;;;;;24.54;33.25;100787.31;10414594;28;20134;-85
2022/04/12 16:30:58;;;;;;;0.52;0.40;;;;;;;23.76;31.88;100804.72;10412363;28;20037;-84
2022/04/12 16:36:01;;;;;;;2.15;0.43;;;;;;;23.95;32.45;100791.00;10395677;28;20073;-85
2022/04/12 16:41:02;;;;;;;0.30;0.10;;;;;;;24.06;31.65;100796.81;10411091;28;20049;-84
2022/04/12 16:46:04;;;;;;;0.10;0.10;;;;;;;23.88;32.05;100792.97;10410322;28;20053;-84
2022/04/12 16:51:06;;;;;;;0.00;0.00;;;;;;;23.71;33.91;100801.38;10411101;28;20057;-84
2022/04/12 16:56:08;;;;;;;0.00;0.00;;;;;;;24.10;32.66;100802.84;10408980;28;20477;-84
2022/04/12 17:01:09;;;;;;;0.00;0.00;;;;;;;24.31;32.51;100803.88;10404662;28;20064;-84
2022/04/12 17:06:11;;;;;;;0.00;0.00;;;;;;;23.72;32.34;100818.88;10408717;28;20065;-84
2022/04/12 17:11:14;;;;;;;0.00;0.00;;;;;;;24.12;33.32;100815.94;10408215;28;20049;-84
2022/04/12 17:16:15;;;;;;;0.00;0.00;;;;;;;23.20;35.45;100823.03;10408861;28;20084;-84
2022/04/12 17:21:17;;;;;;;0.00;0.00;;;;;;;23.08;34.73;100825.06;10392352;28;20050;-84
2022/04/12 17:26:24;;;;;;;0.00;0.00;;;;;;;23.13;34.64;100825.78;10408866;28;20091;-84
2022/04/12 17:31:26;;;;;;;0.00;0.00;;;;;;;23.77;32.46;100826.63;10406805;28;20489;-81
2022/04/12 17:36:28;;;;;;;0.00;0.00;;;;;;;23.58;31.59;100821.06;10406633;28;20045;-81
2022/04/12 17:41:30;;;;;;;0.00;0.00;;;;;;;23.55;31.43;100821.16;10399894;28;20140;-81
2022/04/12 17:46:37;;;;;;;0.00;0.00;;;;;;;23.18;32.26;100825.69;10407556;28;20077;-82
2022/04/12 17:51:38;;;;;;;0.00;0.00;;;;;;;22.58;36.29;100822.03;10402748;28;20095;-82
2022/04/12 17:56:40;;;;;;;0.00;0.00;;;;;;;22.25;37.86;100827.16;10406871;28;20098;-83
2022/04/12 18:01:42;;;;;;;0.00;0.00;;;;;;;22.19;37.18;100836.91;10408222;28;20045;-82
2022/04/12 18:06:44;;;;;;;0.00;0.00;;;;;;;21.79;36.52;100834.34;10403516;28;20318;-82
2022/04/12 18:11:46;;;;;;;0.00;0.00;;;;;;;22.21;34.90;100834.25;10389433;28;20045;-82
2022/04/12 18:16:47;;;;;;;0.00;0.00;;;;;;;22.32;34.41;100847.09;10404061;28;20132;-82
2022/04/12 18:21:49;;;;;;;0.00;0.00;;;;;;;21.54;37.01;100853.19;10406517;28;20397;-82
2022/04/12 18:26:51;;;;;;;0.00;0.00;;;;;;;21.49;36.28;100866.38;10406953;28;20046;-82
2022/04/12 18:31:52;;;;;;;0.00;0.00;;;;;;;21.11;38.85;100864.50;10406687;28;20099;-82
2022/04/12 18:37:10;;;;;;;0.00;0.00;;;;;;;21.30;36.82;100865.03;10403052;28;20120;-83
2022/04/12 18:42:15;;;;;;;0.00;0.00;;;;;;;21.38;36.14;100873.59;10406012;28;20063;-82
2022/04/12 18:47:16;;;;;;;0.00;0.00;;;;;;;21.51;35.28;100885.56;10410302;28;20081;-82
2022/04/12 18:52:18;;;;;;;0.00;0.00;;;;;;;21.65;35.44;100889.69;10395802;28;20707;-82
2022/04/12 18:57:24;;;;;;;0.00;0.00;;;;;;;20.86;38.76;100901.59;10414207;28;20045;-82
2022/04/12 19:02:26;;;;;;;0.00;0.00;;;;;;;18.41;48.58;100911.31;10411378;28;20573;-81
2022/04/12 19:07:28;;;;;;;0.00;0.00;;;;;;;17.91;49.26;100914.16;10412049;28;20045;-82
2022/04/12 19:12:30;;;;;;;0.00;0.00;;;;;;;18.97;45.19;100920.50;10406256;28;20132;-82
2022/04/12 19:17:32;;;;;;;0.00;0.00;;;;;;;18.37;46.47;100924.38;10410047;28;20276;-82
2022/04/12 19:22:35;;;;;;;0.00;0.00;;;;;;;19.16;43.92;100936.84;10415631;28;20136;-82
2022/04/12 19:27:37;;;;;;;0.00;0.00;;;;;;;19.46;43.00;100933.97;10412449;28;20095;-82
2022/04/12 19:32:38;;;;;;;0.00;0.00;;;;;;;18.93;44.46;100938.78;10409848;28;20083;-82
2022/04/12 19:37:40;;;;;;;0.00;0.00;;;;;;;19.12;44.12;100939.50;10409399;28;20124;-82
2022/04/12 19:42:43;;;;;;;0.00;0.00;;;;;;;19.07;45.00;100941.31;10409852;28;20043;-82
2022/04/12 19:47:45;;;;;;;0.00;0.00;;;;;;;18.75;47.20;100951.09;10405872;28;20564;-82
2022/04/12 19:52:46;;;;;;;0.00;0.00;;;;;;;18.80;46.57;100940.63;10390965;28;20053;-82
2022/04/12 19:57:49;;;;;;;0.00;0.00;;;;;;;18.59;45.51;100950.31;10410277;28;20136;-82
2022/04/12 20:02:51;;;;;;;0.00;0.00;;;;;;;18.61;47.43;100951.19;10403767;28;20041;-82
2022/04/12 20:07:55;;;;;;;0.00;0.00;;;;;;;17.42;49.11;100952.50;10409926;28;20045;-82
2022/04/12 20:12:57;;;;;;;0.00;0.00;;;;;;;16.24;56.86;100969.72;10409392;28;20045;-82
2022/04/12 20:17:59;;;;;;;0.93;0.88;;;;;;;16.42;55.66;100976.69;10393000;28;20449;-82
2022/04/12 20:23:03;;;;;;;0.10;0.10;;;;;;;16.30;56.41;100976.66;10403553;28;20630;-82
2022/04/12 20:28:06;;;;;;;0.20;0.20;;;;;;;16.59;53.95;100978.47;10408974;28;20099;-81
2022/04/12 20:33:08;;;;;;;0.00;0.00;;;;;;;16.70;53.53;100971.59;10409768;28;20115;-82
2022/04/12 20:38:12;;;;;;;5.82;2.20;;;;;;;16.31;53.85;100979.28;10405603;28;20133;-82
2022/04/12 20:43:13;;;;;;;0.00;0.00;;;;;;;17.16;51.66;100969.91;10407410;28;20095;-82
2022/04/12 20:48:15;;;;;;;0.00;0.00;;;;;;;16.84;53.00;100968.13;10408562;28;20116;-82
2022/04/12 20:53:17;;;;;;;0.00;0.00;;;;;;;17.40;51.42;100977.69;10411271;28;20470;-83
2022/04/12 20:58:19;;;;;;;0.00;0.00;;;;;;;17.02;52.59;100983.78;10410225;28;20103;-82
2022/04/12 21:03:20;;;;;;;0.00;0.00;;;;;;;16.87;51.70;100970.72;10407320;28;20434;-82
2022/04/12 21:08:22;;;;;;;0.00;0.00;;;;;;;16.88;51.22;100980.25;10424702;28;20053;-82
2022/04/12 21:13:24;;;;;;;0.00;0.00;;;;;;;16.93;53.17;100986.38;10409690;28;20050;-82
2022/04/12 21:18:26;;;;;;;0.00;0.00;;;;;;;17.03;50.69;100985.50;10405701;28;20047;-81
2022/04/12 21:23:34;;;;;;;0.00;0.00;;;;;;;17.24;50.14;100981.16;10404626;28;20495;-81
2022/04/12 21:28:35;;;;;;;0.00;0.00;;;;;;;17.47;49.25;100985.47;10411258;28;20069;-82
2022/04/12 21:33:38;;;;;;;0.00;0.00;;;;;;;17.43;49.43;100982.91;10410245;28;20538;-82
2022/04/12 21:38:40;;;;;;;0.65;0.52;;;;;;;16.93;50.38;100984.63;10406747;28;20041;-82
2022/04/12 21:43:42;;;;;;;0.00;0.00;;;;;;;17.23;49.92;100993.31;10408774;28;20497;-81
2022/04/12 21:48:44;;;;;;;0.10;0.10;;;;;;;17.20;49.52;100988.09;10406265;28;20069;-81
2022/04/12 21:53:47;;;;;;;0.05;0.05;;;;;;;17.28;49.33;101002.00;10412080;28;20409;-81
2022/04/12 21:58:49;;;;;;;0.00;0.00;;;;;;;17.80;47.41;101009.75;10449057;28;20115;-81
2022/04/12 22:03:51;;;;;;;0.45;0.30;;;;;;;16.91;49.96;101017.56;10399730;28;20050;-81
2022/04/12 22:08:53;;;;;;;0.20;0.20;;;;;;;16.96;50.12;101015.00;10407262;28;20353;-81
2022/04/12 22:13:57;;;;;;;0.00;0.00;;;;;;;17.20;49.50;101013.28;10407239;28;20073;-81
2022/04/12 22:18:58;;;;;;;0.00;0.00;;;;;;;17.03;50.44;101024.56;10407067;28;20042;-80
2022/04/12 22:24:00;;;;;;;1.88;0.65;;;;;;;17.05;49.99;101033.25;10415038;28;20053;-80
2022/04/12 22:29:02;;;;;;;2.20;0.82;;;;;;;17.19;48.00;101027.16;10398552;28;20081;-80
2022/04/12 22:34:07;;;;;;;0.00;0.00;;;;;;;17.65;47.14;101028.91;10415858;28;20084;-80
2022/04/12 22:39:08;;;;;;;1.58;1.08;;;;;;;17.25;48.36;101035.88;10414660;28;20492;-81
2022/04/12 22:44:10;;;;;;;0.20;0.20;;;;;;;16.99;49.85;101041.03;10414931;28;20128;-80
2022/04/12 22:49:11;;;;;;;0.80;0.47;;;;;;;16.78;50.26;101047.91;10415904;28;20073;-81
2022/04/12 22:54:16;;;;;;;0.38;0.28;;;;;;;17.10;48.87;101049.72;10414519;28;20045;-80
2022/04/12 22:59:17;;;;;;;0.43;0.43;;;;;;;17.06;49.98;101053.19;10413740;28;20103;-81
2022/04/12 23:04:19;;;;;;;0.05;0.00;;;;;;;17.05;49.46;101056.66;10414414;28;20436;-80
2022/04/12 23:09:21;;;;;;;0.00;0.00;;;;;;;17.29;48.33;101066.22;10397359;28;20505;-80
2022/04/12 23:14:22;;;;;;;0.00;0.00;;;;;;;17.02;49.38;101061.00;10414533;28;20099;-80
2022/04/12 23:19:24;;;;;;;0.10;0.10;;;;;;;17.18;49.00;101062.75;10426016;28;20385;-80